WXForecasting.com
 BROWN COUNTY, SD  -  River Flood Warning River Flood Warning  
Aberdeen, SD - Weather Station Data
Daily Summary for April 17, 2018 Units:  English    Metric   Both
Next Day »
Daily Weekly Monthly Yearly Custom
  High: Low: Average:
Temperature: 49.5 °F 29.0 °F 39.1 °F
Dew Point: 34.0 °F 24.0 °F 28.4 °F
Humidity: 85% 50% 67%
Wind Speed: 15.0mph 0.0mph 4mph
Wind Gust: 18.0mph - -
Wind- - East
Pressure: 30.09 in 29.86 in -
Precipitation: 0.00 in    
Historical Graphs
 
 
Tabular Data for April 17, 2018
Time Temperature Dew Point Pressure Wind Wind Speed Wind Gust Humidity Rainfall Rate (Hourly) solar Conditions
00:04 30.0 °F 24.0 °F 30.09 in Calm     78% 0.00 in 0 W/m2
00:19 29.8 °F 24.0 °F 30.08 in Calm     80% 0.00 in 0 W/m2
00:34 29.9 °F 25.0 °F 30.08 in NE 2.0 mph 2.0 mph 81% 0.00 in 0 W/m2
00:49 30.1 °F 25.0 °F 30.08 in Calm     81% 0.00 in 0 W/m2
01:04 30.2 °F 25.0 °F 30.07 in Calm   1.0 mph 81% 0.00 in 0 W/m2
01:19 30.4 °F 25.0 °F 30.07 in Calm   2.0 mph 81% 0.00 in 0 W/m2
01:34 30.6 °F 25.0 °F 30.07 in Calm   2.0 mph 81% 0.00 in 0 W/m2
01:50 30.3 °F 25.0 °F 30.07 in NE 1.0 mph 1.0 mph 81% 0.00 in 0 W/m2
02:05 30.1 °F 25.0 °F 30.06 in NE 2.0 mph 3.0 mph 82% 0.00 in 0 W/m2
02:20 30.3 °F 25.0 °F 30.05 in NE 3.0 mph 6.0 mph 82% 0.00 in 0 W/m2
02:35 30.0 °F 25.0 °F 30.04 in NE 3.0 mph 5.0 mph 83% 0.00 in 0 W/m2
02:50 29.9 °F 25.0 °F 30.04 in NE 1.0 mph 5.0 mph 83% 0.00 in 0 W/m2
03:05 29.7 °F 25.0 °F 30.03 in Calm   3.0 mph 83% 0.00 in 0 W/m2
03:20 29.4 °F 25.0 °F 30.03 in Calm   3.0 mph 83% 0.00 in 0 W/m2
03:35 29.4 °F 25.0 °F 30.02 in NE 1.0 mph 2.0 mph 84% 0.00 in 0 W/m2
03:50 29.7 °F 25.0 °F 30.03 in Calm   2.0 mph 84% 0.00 in 0 W/m2
04:05 29.7 °F 25.0 °F 30.03 in Calm   2.0 mph 83% 0.00 in 0 W/m2
04:20 29.8 °F 25.0 °F 30.00 in NE 1.0 mph 3.0 mph 83% 0.00 in 0 W/m2
04:35 29.9 °F 25.0 °F 30.01 in Calm   3.0 mph 83% 0.00 in 0 W/m2
04:50 30.4 °F 26.0 °F 30.01 in Calm   3.0 mph 83% 0.00 in 0 W/m2
05:05 30.3 °F 26.0 °F 30.01 in Calm   2.0 mph 83% 0.00 in 0 W/m2
05:20 30.0 °F 25.0 °F 30.02 in Calm   2.0 mph 83% 0.00 in 0 W/m2
05:35 30.0 °F 25.0 °F 30.01 in Calm   2.0 mph 83% 0.00 in 0 W/m2
05:50 29.9 °F 25.0 °F 30.02 in NE 2.0 mph 2.0 mph 83% 0.00 in 0 W/m2
06:05 29.8 °F 26.0 °F 30.02 in NE 1.0 mph 3.0 mph 84% 0.00 in 0 W/m2
06:20 29.6 °F 25.0 °F 30.01 in NE 1.0 mph 3.0 mph 84% 0.00 in 0 W/m2
06:35 29.4 °F 25.0 °F 30.02 in Calm     84% 0.00 in 0 W/m2
06:50 29.0 °F 25.0 °F 30.02 in NE 1.0 mph 2.0 mph 84% 0.00 in 7 W/m2
07:05 29.2 °F 25.0 °F 30.02 in Calm   2.0 mph 85% 0.00 in 23 W/m2
07:20 29.5 °F 26.0 °F 30.02 in Calm   3.0 mph 85% 0.00 in 23 W/m2
07:35 29.6 °F 26.0 °F 30.01 in NE 1.0 mph 2.0 mph 85% 0.00 in 51 W/m2
07:50 30.5 °F 27.0 °F 30.01 in NE 2.0 mph 4.0 mph 85% 0.00 in 141 W/m2
08:05 32.3 °F 28.0 °F 30.00 in ESE 4.0 mph 9.0 mph 84% 0.00 in 169 W/m2
08:20 33.8 °F 28.0 °F 30.00 in ESE 7.0 mph 9.0 mph 80% 0.00 in 237 W/m2
08:35 35.3 °F 28.0 °F 29.98 in SE 7.0 mph 12.0 mph 76% 0.00 in 299 W/m2
08:50 36.7 °F 28.0 °F 29.97 in East 9.0 mph 14.0 mph 70% 0.00 in 336 W/m2
09:05 37.5 °F 27.0 °F 29.95 in ESE 9.0 mph 13.0 mph 67% 0.00 in 383 W/m2
09:20 38.2 °F 27.0 °F 29.95 in ENE 11.0 mph 15.0 mph 65% 0.00 in 427 W/m2
09:36 39.1 °F 28.0 °F 29.94 in East 5.0 mph 16.0 mph 64% 0.00 in 469 W/m2
09:51 39.9 °F 27.0 °F 29.93 in ENE 11.0 mph 15.0 mph 61% 0.00 in 520 W/m2
10:06 40.9 °F 27.0 °F 29.93 in ESE 4.0 mph 16.0 mph 59% 0.00 in 302 W/m2
10:21 41.6 °F 28.0 °F 29.93 in South 4.0 mph 11.0 mph 60% 0.00 in 596 W/m2
10:36 42.3 °F 29.0 °F 29.93 in East 4.0 mph 16.0 mph 59% 0.00 in 631 W/m2
10:51 42.5 °F 28.0 °F 29.93 in East 7.0 mph 17.0 mph 56% 0.00 in 664 W/m2
11:06 43.7 °F 28.0 °F 29.93 in SE 5.0 mph 14.0 mph 55% 0.00 in 700 W/m2
11:21 43.8 °F 27.0 °F 29.93 in SE 10.0 mph 17.0 mph 52% 0.00 in 729 W/m2
11:36 44.9 °F 29.0 °F 29.94 in SE 7.0 mph 15.0 mph 53% 0.00 in 759 W/m2
11:51 45.0 °F 29.0 °F 29.94 in East 7.0 mph 14.0 mph 53% 0.00 in 849 W/m2
12:06 46.0 °F 28.0 °F 29.93 in SSE 5.0 mph 14.0 mph 50% 0.00 in 504 W/m2
12:21 44.4 °F 28.0 °F 29.92 in SE 11.0 mph 16.0 mph 52% 0.00 in 348 W/m2
12:36 44.7 °F 28.0 °F 29.92 in SE 4.0 mph 14.0 mph 53% 0.00 in 628 W/m2
12:51 46.0 °F 30.0 °F 29.91 in ESE 4.0 mph 13.0 mph 53% 0.00 in 200 W/m2
13:06 44.4 °F 29.0 °F 29.90 in East 3.0 mph 11.0 mph 56% 0.00 in 369 W/m2
13:21 46.7 °F 31.0 °F 29.90 in ESE 3.0 mph 13.0 mph 55% 0.00 in 1037 W/m2
13:36 47.4 °F 30.0 °F 29.90 in ENE 3.0 mph 14.0 mph 51% 0.00 in 461 W/m2
13:51 46.2 °F 31.0 °F 29.89 in ESE 6.0 mph 13.0 mph 55% 0.00 in 789 W/m2
14:06 48.1 °F 31.0 °F 29.87 in East 6.0 mph 12.0 mph 51% 0.00 in 281 W/m2
14:21 48.2 °F 32.0 °F 29.88 in East 6.0 mph 13.0 mph 54% 0.00 in 835 W/m2
14:37 48.7 °F 32.0 °F 29.87 in SE 1.0 mph 16.0 mph 53% 0.00 in 809 W/m2
14:52 48.6 °F 31.0 °F 29.87 in ESE 11.0 mph 14.0 mph 52% 0.00 in 789 W/m2
15:07 48.9 °F 32.0 °F 29.87 in SE 3.0 mph 14.0 mph 53% 0.00 in 768 W/m2
15:22 48.7 °F 32.0 °F 29.86 in SE 8.0 mph 14.0 mph 52% 0.00 in 740 W/m2
15:37 49.2 °F 32.0 °F 29.86 in East 4.0 mph 14.0 mph 52% 0.00 in 719 W/m2
15:52 49.5 °F 32.0 °F 29.86 in SE 8.0 mph 14.0 mph 51% 0.00 in 728 W/m2
16:07 48.7 °F 32.0 °F 29.86 in ESE 7.0 mph 11.0 mph 52% 0.00 in 334 W/m2
16:22 49.4 °F 32.0 °F 29.87 in SE 4.0 mph 9.0 mph 51% 0.00 in 575 W/m2
16:37 48.8 °F 32.0 °F 29.87 in SE 3.0 mph 10.0 mph 52% 0.00 in 288 W/m2
16:52 48.9 °F 32.0 °F 29.88 in ESE 4.0 mph 7.0 mph 53% 0.00 in 367 W/m2
17:07 48.7 °F 33.0 °F 29.88 in ESE 3.0 mph 7.0 mph 54% 0.00 in 257 W/m2
17:22 48.8 °F 33.0 °F 29.89 in ESE 2.0 mph 8.0 mph 54% 0.00 in 255 W/m2
17:37 49.0 °F 33.0 °F 29.89 in East 9.0 mph 9.0 mph 54% 0.00 in 533 W/m2
17:52 48.1 °F 31.0 °F 29.90 in NE 4.0 mph 14.0 mph 53% 0.00 in 200 W/m2
18:07 47.2 °F 31.0 °F 29.91 in East 4.0 mph 11.0 mph 54% 0.00 in 125 W/m2
18:22 46.5 °F 30.0 °F 29.91 in ENE 3.0 mph 10.0 mph 52% 0.00 in 100 W/m2
18:37 45.9 °F 29.0 °F 29.92 in ENE 3.0 mph 12.0 mph 53% 0.00 in 72 W/m2
18:52 45.3 °F 29.0 °F 29.92 in NE 1.0 mph 12.0 mph 54% 0.00 in 63 W/m2
19:07 44.9 °F 30.0 °F 29.93 in NE 5.0 mph 12.0 mph 56% 0.00 in 37 W/m2
19:22 44.4 °F 30.0 °F 29.94 in NE 3.0 mph 13.0 mph 58% 0.00 in 30 W/m2
19:37 44.0 °F 30.0 °F 29.93 in NE 2.0 mph 11.0 mph 59% 0.00 in 12 W/m2
19:52 43.6 °F 30.0 °F 29.93 in NE 4.0 mph 10.0 mph 60% 0.00 in 7 W/m2
20:07 43.2 °F 30.0 °F 29.93 in NE 5.0 mph 8.0 mph 60% 0.00 in 0 W/m2
20:22 42.8 °F 30.0 °F 29.93 in ENE 1.0 mph 6.0 mph 61% 0.00 in 0 W/m2
20:37 42.3 °F 30.0 °F 29.94 in ENE 1.0 mph 5.0 mph 62% 0.00 in 0 W/m2
20:52 41.9 °F 30.0 °F 29.93 in ENE 4.0 mph 5.0 mph 64% 0.00 in 0 W/m2
21:07 41.8 °F 31.0 °F 29.93 in ENE 4.0 mph 7.0 mph 66% 0.00 in 0 W/m2
21:22 41.5 °F 32.0 °F 29.93 in NE 5.0 mph 9.0 mph 68% 0.00 in 0 W/m2
21:37 41.0 °F 32.0 °F 29.94 in NE 3.0 mph 10.0 mph 70% 0.00 in 0 W/m2
21:52 40.6 °F 32.0 °F 29.94 in NE 10.0 mph 12.0 mph 72% 0.00 in 0 W/m2
22:07 41.0 °F 34.0 °F 29.95 in NNE 5.0 mph 11.0 mph 77% 0.00 in 0 W/m2
22:22 40.4 °F 32.0 °F 29.95 in NE 15.0 mph 18.0 mph 72% 0.00 in 0 W/m2
22:37 39.8 °F 31.0 °F 29.95 in NE 10.0 mph 15.0 mph 72% 0.00 in 0 W/m2
22:52 39.5 °F 32.0 °F 29.96 in NNE 6.0 mph 11.0 mph 74% 0.00 in 0 W/m2
23:07 39.1 °F 31.0 °F 29.96 in NNE 10.0 mph 14.0 mph 73% 0.00 in 0 W/m2
23:22 38.8 °F 30.0 °F 29.95 in NE 5.0 mph 13.0 mph 72% 0.00 in 0 W/m2
23:37 38.7 °F 29.0 °F 29.94 in ENE 8.0 mph 12.0 mph 69% 0.00 in 0 W/m2
23:52 38.6 °F 28.0 °F 29.94 in NE 9.0 mph 13.0 mph 67% 0.00 in 0 W/m2